Relevés horaires Bierset (Belgique)


Relevés horaires à Bierset - Dimanche 25 Juin 2023
Heure UTC1 Température [°C] Vent [km/h] Hum. [%] Pres.4 [hPa] Visi. [Km] Nébu. [octa] Préc.5 [mm] Cond.
2m. Res. Ros. Dir.2 Vit. Moy. Raf.3
23:00 23.4 23.4 13.2 S 5.6 7.4 18.5 53 1014(-0.3/3h) 30 1/8 -- --
22:00 25.0 25.0 13.2 SSO 7.4 7.4 11.1 48 1014.2(-0.1/3h) 30 1/8 -- --
21:00 25.5 25.5 13.8 SSO 7.4 7.4 14.8 48 1014.2(-0.2/3h) 30 1/8 -- --
20:00 26.9 26.9 13.6 SSO 5.6 7.4 11.1 44 1014.1(-0.3/3h) 30 1/8 -- --
19:00 28.3 28.3 12.6 SSO 5.6 7.4 13.0 38 1014(-0.6/3h) 30 1/8 -- --
18:00 29.5 29.5 12.1 SSO 7.4 9.3 18.5 34 1014.1(-0.9/3h) 30 1/8 0/12h
--
17:00 30.2 30.2 12.6 SSO 7.4 7.4 13.0 34 1014.2(-1.4/3h) 30 1/8 -- --
16:00 30.4 30.4 12.1 SSO 5.6 9.3 16.7 33 1014.5(-1.4/3h) 40 1/8 -- --
15:00 30.7 30.7 12.8 S 7.4 7.4 14.8 33 1014.9(-1.6/3h) 40 1/8 -- --
14:00 29.9 29.9 12.8 SSO 5.6 5.6 13.0 35 1015.6(-1.6/3h) 40 1/8 -- --
13:00 29.4 29.4 12.8 NNO 3.7 7.4 14.8 36 1016(-1.7/3h) 40 1/8 -- --
12:00 29.5 29.5 12.5 SO 7.4 9.3 24.1 35 1016.6(-1.4/3h) 40 1/8 0/6h
--
11:00 28.9 28.9 12.5 SSO 7.4 9.3 14.8 36 1017.3(-0.9/3h) 40 1/8 -- --
10:00 28.0 28.0 12.3 SSO 7.4 9.3 24.1 38 1017.9(-0.5/3h) 40 0/8 -- --
09:00 26.9 26.9 12.2 S 7.4 9.3 13.0 40 1018.2(-0.4/3h) 40 0/8 -- --
08:00 25.2 25.2 12.0 S 7.4 7.4 13.0 44 1018.5(0.0/3h) 40 0/8 -- --
07:00 22.7 22.7 11.8 SSE 7.4 7.4 11.1 50 1018.8(0.0/3h) 40 0/8 -- --
06:00 20.3 20.3 12.0 SSE 5.6 7.4 16.7 59 1019(-0.1/3h) 40 0/8 0/12h
--
05:00 18.5 18.5 10.8 SSE 7.4 7.4 16.7 61 1019(-0.6/3h) 40 0/8 -- --
04:00 18.2 18.2 10.1 SE 7.4 7.4 16.7 59 1019.1(-1.3/3h) 40 0/8 -- --
03:00 17.1 17.1 11.4 SE 5.6 7.4 13.0 69 1019.4(-1.5/3h) 40 0/8 -- --
02:00 17.9 17.9 11.0 SE 5.6 5.6 7.4 64 1019.7(-1.5/3h) 40 0/8 -- --
01:00 19.2 19.2 10.1 SE 3.7 5.6 7.4 56 1020.3(-1.1/3h) 40 0/8 -- --
00:00 19.7 19.7 10.5 SE 5.6 5.6 20.4 55 1020.8(-0.8/3h) 40 0/8 0/6h
0/24h
--

1 Coordinated Universal Time. Actuellement il est 02:00 locale et 00:00 UTC.

2 Le vent souffle depuis la direction indiquée vers la direction oposée.

3 Les rafales max. sont disponible 40 min après l'heure du relevé.

4 Pour les stations d'altitude (plus de 600m) le géopotentiel du niveau le plus proche de la pression obligatoire est indiqué.

5 Les stations disposant d'un diffuseur peuvent indiquer "trace". Cela signifie que des précipitations ont touchés le sol mais que la quantité est inférieure à 0.1 mm.

Récapitulatif de la journée
Température [°C] Vent [km/h] Ensoleillement4 [h] Precipitations totale5 [mm] Pression [Hpa]
Min1 Max.2 Moy.3 Max. Min Max.
17.0 30.8 7.6 24.1 0 h 0 min 0 1014.0 1020.8

1 Température minimale relevée entre 18:00 UTC la veille et 18:00 UTC le jour donné.

2 Température maximale relevée entre 06:00 UTC le jour donné et 06:00 UTC le lendemain.

3 Vent moyen de la journée basé sur les relevés horaires.

4 Ensoleillement en heures relevé entre 06:00 UTC la veille et 06:00 UTC le jour donné.

5 Précipitations totales tombées entre 06:00 UTC la jour donné et 06:00 UTC le lendemain.

Graphiques horaires